Portada
METAR-TAF:

METAR-TAF

Aeroports :

Gladstone, Austràlia

latitud: 23-52-11S, longitud: 151-13-22E, altitud: 18 m

Observació

L'informe es va fer fa 23 minuts, a les 10:30 UTC
Vent calma
Temperatura 17°C
Humitat 77%
Pressió 1016 hPa
Visibilitat 10 km o més

METAR: YGLA 161030Z AUTO 00000KT 9999 // NCD 17/13 Q1016 RF00.0/000.0

Hora: 20:53 (10:53 UTC)

Pronòstic

L'informe es va fer fa 5 hores i 38 minuts, a les 05:15 UTC
Pronòstic vàlid del 16 a les 06 UTC al 16 a les 18 UTC
Vent 7 kt del Nord-Est
Visibilitat 10 km o més
sense núvols per sota de 1500 mi sense presència de cumulonimbus.
A partir de les 16 a les 1000 UTC
Vent 2 kt amb direcció variable
Visibilitat 10 km o més
sense núvols per sota de 1500 mi sense presència de cumulonimbus.

TAF: YGLA 160515Z 1606/1618 04007KT CAVOK FM161000 VRB02KT CAVOK

Observacions i pronòstics meteorològics de més de 4000 aeroports (METAR i TAF).

Les estacions disponibles són els punts grocs i vermells al mapa.

Posi el ratolí al punt desitjat per veure el nom de l'estació.

Feu clic per veure les observacions i els pronòstics meteorològics.

Per canviar el mapa: feu clic els botons verds amb una creu de color negre per apropar; al botó verd amb un guió per allunyar la imatge; o en les fletxes verdes per a mapes adjacents.


METAR-TAF: